Forside
METAR-TAF:

METAR-TAF

Lufthavne :

Iowa City Municipal Airport

Iowa City, Iowa, USA

Breddekreds: 41-37-58N, længdekreds: 091-32-35W, højde: 203 m

Aktuelle vejr

Denne rapport blev lavet for 55 minutter siden, kl. 02:52 UTC
Vind stille
Temperatur -11°C
Fugtighed 78%
Tryk 1028 hPa
Sigt: 16.1 km
skyfri

METAR: KIOW 110252Z AUTO 00000KT 10SM CLR M11/M14 A3036 RMK AO2 SLP295 T11061139 50002

Tid: 21:47 (03:47 UTC)


TAF: fraværende

Vejrobservationer og prognoser fra mere end 4000 lufthavne (METAR og TAF).

De gule og røde prikker repræsenterer de meteorologiske stationer.

Flyt musen over at se navnet på stationen.

Så klik over at se vejr observationer og prognoser.

At skifte det kort: Klik på de grønne knapper med et sort kors for at zoome ind; på den grønne knap med en bindestreg for at zoome ud; eller på de grønne pile for tilstødende kort.


METAR-TAF: